Time;durP1;ratioP1;P1;durP2;ratioP2;P2;SDS_P1;SDS_P2;PMS_P1;PMS_P2;Temp;Humidity;BMP_temperature;BMP_pressure;BME280_temperature;BME280_humidity;BME280_pressure;Samples;Min_cycle;Max_cycle;Signal;HPM_P1;HPM_P2
2023/12/03 00:00:07;;;;;;;7.25;3.78;;;-1.30;1.00;;;;;;5046874;28;20489;-66
2023/12/03 00:02:33;;;;;;;8.75;2.58;;;-1.20;1.00;;;;;;5048635;28;20394;-66
2023/12/03 00:04:59;;;;;;;6.93;2.35;;;-1.10;1.00;;;;;;5050510;28;20396;-66
2023/12/03 00:07:26;;;;;;;6.90;2.85;;;-1.20;1.00;;;;;;5050644;28;20389;-66
2023/12/03 00:09:51;;;;;;;9.65;3.60;;;-1.30;1.00;;;;;;5050918;28;20374;-65
2023/12/03 00:12:17;;;;;;;11.97;4.40;;;-1.40;1.00;;;;;;5051170;28;20420;-65
2023/12/03 00:14:42;;;;;;;8.27;3.73;;;-1.50;1.00;;;;;;5051269;28;20895;-66
2023/12/03 00:17:08;;;;;;;7.15;2.83;;;-1.50;1.00;;;;;;5047164;28;20855;-66
2023/12/03 00:19:33;;;;;;;8.10;2.70;;;-1.40;1.00;;;;;;5030381;28;20420;-66
2023/12/03 00:21:59;;;;;;;10.10;4.57;;;-1.20;1.00;;;;;;5030691;28;20386;-66
2023/12/03 00:24:25;;;;;;;8.23;3.40;;;-1.40;1.00;;;;;;5030541;28;20387;-66
2023/12/03 00:26:51;;;;;;;10.32;3.25;;;-1.40;1.00;;;;;;5034113;28;20394;-66
2023/12/03 00:29:16;;;;;;;7.50;2.90;;;-1.40;1.00;;;;;;5050096;28;20449;-66
2023/12/03 00:31:42;;;;;;;11.47;2.73;;;-1.30;1.00;;;;;;5050410;28;20404;-64
2023/12/03 00:34:07;;;;;;;12.75;3.72;;;-1.50;1.00;;;;;;5050457;28;20393;-66
2023/12/03 00:36:33;;;;;;;10.00;4.43;;;-1.50;1.00;;;;;;5049523;28;20425;-65
2023/12/03 00:38:58;;;;;;;8.93;3.50;;;-1.50;1.00;;;;;;5048993;28;20417;-65
2023/12/03 00:41:24;;;;;;;10.02;3.58;;;-1.70;1.00;;;;;;5049253;28;20413;-66
2023/12/03 00:43:50;;;;;;;8.20;3.07;;;-1.60;1.00;;;;;;5048175;28;20424;-66
2023/12/03 00:46:19;;;;;;;13.30;2.80;;;-1.60;1.00;;;;;;5048603;28;20389;-66
2023/12/03 00:48:46;;;;;;;7.68;3.50;;;-1.50;1.00;;;;;;5049904;28;20419;-66
2023/12/03 00:51:12;;;;;;;7.30;2.60;;;-1.30;1.00;;;;;;5049459;28;20489;-66
2023/12/03 00:53:38;;;;;;;7.25;2.90;;;-1.30;1.00;;;;;;5048909;28;20417;-66
2023/12/03 00:56:04;;;;;;;11.03;3.00;;;-1.60;1.00;;;;;;5049372;28;20424;-65
2023/12/03 00:58:29;;;;;;;7.30;2.80;;;-1.60;1.00;;;;;;5049262;28;20417;-65
2023/12/03 01:00:54;;;;;;;9.47;3.43;;;-1.70;1.00;;;;;;5050084;28;20449;-65
2023/12/03 01:03:20;;;;;;;9.68;3.60;;;-1.50;1.00;;;;;;5050083;28;20902;-65
2023/12/03 01:05:45;;;;;;;12.33;4.17;;;-1.30;1.00;;;;;;5050474;28;20416;-65
2023/12/03 01:08:11;;;;;;;9.07;3.30;;;-1.20;1.00;;;;;;5050732;28;20471;-66
2023/12/03 01:10:36;;;;;;;6.03;1.97;;;-1.10;1.00;;;;;;5048721;28;20898;-65
2023/12/03 01:13:02;;;;;;;10.90;3.45;;;-1.30;1.00;;;;;;5050105;28;20397;-65
2023/12/03 01:15:27;;;;;;;10.77;4.20;;;-1.30;1.00;;;;;;5050168;28;20394;-65
2023/12/03 01:17:53;;;;;;;8.33;3.20;;;-1.40;1.00;;;;;;5050332;28;20413;-65
2023/12/03 01:20:18;;;;;;;9.13;3.20;;;-1.20;1.00;;;;;;5049898;28;20425;-65
2023/12/03 01:22:44;;;;;;;7.43;3.23;;;-1.10;1.00;;;;;;5050198;28;20407;-65
2023/12/03 01:25:10;;;;;;;9.93;3.45;;;-1.10;1.00;;;;;;5049626;28;20401;-65
2023/12/03 01:27:35;;;;;;;7.70;3.25;;;-1.20;1.00;;;;;;5049937;28;20942;-65
2023/12/03 01:30:01;;;;;;;8.87;3.40;;;-1.10;1.00;;;;;;5049375;28;20472;-65
2023/12/03 01:32:26;;;;;;;9.40;2.97;;;-1.00;1.00;;;;;;5049615;28;20404;-65
2023/12/03 01:34:52;;;;;;;8.90;2.93;;;-1.00;1.00;;;;;;5049051;28;20405;-65
2023/12/03 01:37:18;;;;;;;11.03;3.30;;;-1.10;1.00;;;;;;5049472;28;20445;-65
2023/12/03 01:39:44;;;;;;;13.65;4.95;;;-1.10;1.00;;;;;;5049615;28;20473;-66
2023/12/03 01:42:09;;;;;;;7.20;2.50;;;-1.10;1.00;;;;;;5049433;28;20378;-66
2023/12/03 01:44:35;;;;;;;9.75;3.47;;;-1.00;1.00;;;;;;5049590;28;20601;-65
2023/12/03 01:47:01;;;;;;;9.20;3.83;;;-1.00;1.00;;;;;;5049414;28;20721;-65
2023/12/03 01:49:26;;;;;;;9.40;4.22;;;-1.00;1.00;;;;;;5050012;28;20392;-65
2023/12/03 01:51:52;;;;;;;9.13;4.15;;;-1.00;1.00;;;;;;5050146;28;20386;-65
2023/12/03 01:54:18;;;;;;;10.20;3.78;;;-1.00;1.00;;;;;;5048931;28;20929;-66
2023/12/03 01:56:44;;;;;;;9.95;4.07;;;-0.90;1.00;;;;;;5048965;28;20886;-65
2023/12/03 01:59:10;;;;;;;11.77;3.95;;;-0.90;1.00;;;;;;5049079;28;20524;-65
2023/12/03 02:01:36;;;;;;;9.05;2.95;;;-0.80;1.00;;;;;;5048677;28;20381;-66
2023/12/03 02:04:01;;;;;;;10.52;3.28;;;-1.00;1.00;;;;;;5048648;28;20740;-66
2023/12/03 02:06:27;;;;;;;12.43;4.90;;;-1.20;1.00;;;;;;5047754;28;20511;-65
2023/12/03 02:08:53;;;;;;;9.20;3.30;;;-1.20;1.00;;;;;;5048534;28;20439;-65
2023/12/03 02:11:19;;;;;;;10.60;4.13;;;-1.20;1.00;;;;;;5048903;28;20396;-66
2023/12/03 02:13:47;;;;;;;6.68;2.83;;;-1.10;1.00;;;;;;5049551;28;20443;-66
2023/12/03 02:16:12;;;;;;;9.20;3.38;;;-1.10;1.00;;;;;;5049333;28;20401;-66
2023/12/03 02:18:39;;;;;;;10.82;4.03;;;-1.10;1.00;;;;;;5048734;28;20425;-65
2023/12/03 02:21:05;;;;;;;11.93;3.80;;;-1.00;1.00;;;;;;5049012;28;20431;-65
2023/12/03 02:23:31;;;;;;;11.52;4.35;;;-1.10;1.00;;;;;;5048291;28;20446;-65
2023/12/03 02:25:58;;;;;;;8.80;3.83;;;-1.10;1.00;;;;;;5050146;28;20385;-66
2023/12/03 02:28:24;;;;;;;12.65;4.20;;;-1.10;1.00;;;;;;5052450;28;20381;-66
2023/12/03 02:30:50;;;;;;;10.47;3.90;;;-1.10;1.00;;;;;;5052638;28;20880;-66
2023/12/03 02:33:16;;;;;;;10.52;3.90;;;-1.20;1.00;;;;;;5053025;28;20381;-66
2023/12/03 02:35:41;;;;;;;8.13;3.37;;;-1.20;1.00;;;;;;5051980;28;20385;-66
2023/12/03 02:38:07;;;;;;;11.43;4.93;;;-1.20;1.00;;;;;;5052120;28;20511;-65
2023/12/03 02:40:33;;;;;;;12.02;3.95;;;-1.20;1.00;;;;;;5052269;28;20447;-66
2023/12/03 02:42:59;;;;;;;16.17;4.20;;;-1.20;1.00;;;;;;5052448;28;20425;-66
2023/12/03 02:45:25;;;;;;;7.97;3.45;;;-1.10;1.00;;;;;;5052093;28;21017;-66
2023/12/03 02:47:50;;;;;;;8.98;3.83;;;-1.10;1.00;;;;;;5054704;28;20381;-66
2023/12/03 02:50:16;;;;;;;7.37;2.93;;;-1.20;1.00;;;;;;5057240;28;20393;-66
2023/12/03 02:52:41;;;;;;;14.07;3.93;;;-1.40;1.00;;;;;;5051664;28;20447;-66
2023/12/03 02:55:08;;;;;;;8.40;4.03;;;-1.40;1.00;;;;;;5051627;28;20448;-66
2023/12/03 02:57:35;;;;;;;8.13;3.05;;;-1.40;1.00;;;;;;5051701;28;20409;-66
2023/12/03 03:00:00;;;;;;;11.57;3.88;;;-1.40;1.00;;;;;;5051969;28;20395;-66
2023/12/03 03:02:26;;;;;;;9.03;2.60;;;-1.40;1.00;;;;;;5051937;28;20950;-66
2023/12/03 03:04:51;;;;;;;6.90;2.30;;;-1.40;1.00;;;;;;5051732;28;20385;-66
2023/12/03 03:07:17;;;;;;;7.77;3.03;;;-1.40;1.00;;;;;;5051904;28;20424;-66
2023/12/03 03:09:42;;;;;;;15.05;4.38;;;-1.30;1.00;;;;;;5052006;28;20433;-66
2023/12/03 03:12:08;;;;;;;10.43;2.90;;;-1.20;1.00;;;;;;5051859;28;20393;-66
2023/12/03 03:14:33;;;;;;;7.93;3.10;;;-1.30;1.00;;;;;;5051591;28;20789;-66
2023/12/03 03:16:59;;;;;;;9.73;4.40;;;-1.30;1.00;;;;;;5051715;28;20412;-66
2023/12/03 03:19:24;;;;;;;8.60;3.67;;;-1.30;1.00;;;;;;5051742;28;20417;-69
2023/12/03 03:21:50;;;;;;;11.93;4.00;;;-1.10;1.00;;;;;;5056345;28;20900;-66
2023/12/03 03:24:15;;;;;;;9.57;4.03;;;-1.20;1.00;;;;;;5053167;28;20385;-66
2023/12/03 03:26:41;;;;;;;10.23;4.07;;;-1.30;1.00;;;;;;5051201;28;20484;-67
2023/12/03 03:29:06;;;;;;;10.90;3.55;;;-1.40;1.00;;;;;;5050082;28;21036;-66
2023/12/03 03:31:32;;;;;;;7.90;3.10;;;-1.20;1.00;;;;;;5051479;28;20400;-66
2023/12/03 03:33:58;;;;;;;9.53;3.30;;;-1.20;1.00;;;;;;5051106;28;20385;-66
2023/12/03 03:36:23;;;;;;;7.72;2.75;;;-1.30;1.00;;;;;;5050138;28;20409;-66
2023/12/03 03:38:50;;;;;;;8.00;3.00;;;-1.40;1.00;;;;;;5050732;28;20453;-66
2023/12/03 03:41:15;;;;;;;9.45;3.45;;;-1.40;1.00;;;;;;5051763;28;20740;-66
2023/12/03 03:43:41;;;;;;;8.05;2.90;;;-1.30;1.00;;;;;;5050960;28;20397;-66
2023/12/03 03:46:07;;;;;;;7.15;2.30;;;-1.20;1.00;;;;;;5050990;28;20397;-66
2023/12/03 03:48:32;;;;;;;9.73;3.60;;;-1.30;1.00;;;;;;5050973;28;20864;-66
2023/12/03 03:50:58;;;;;;;9.80;3.57;;;-1.20;1.00;;;;;;5050794;28;20473;-66
2023/12/03 03:53:23;;;;;;;9.60;4.03;;;-1.10;1.00;;;;;;5050747;28;20484;-66
2023/12/03 03:55:49;;;;;;;8.17;3.30;;;-1.20;1.00;;;;;;5050700;28;20728;-66
2023/12/03 03:58:14;;;;;;;10.60;3.35;;;-1.10;1.00;;;;;;5051106;28;20448;-66
2023/12/03 04:00:40;;;;;;;8.40;4.07;;;-1.10;1.00;;;;;;5050695;28;20401;-66
2023/12/03 04:03:05;;;;;;;11.33;4.00;;;-1.10;1.00;;;;;;5050562;28;20728;-66
2023/12/03 04:05:31;;;;;;;9.05;3.92;;;-1.10;1.00;;;;;;5050025;28;20468;-66
2023/12/03 04:07:56;;;;;;;11.27;3.70;;;-1.20;1.00;;;;;;5050712;28;20468;-66
2023/12/03 04:10:22;;;;;;;7.30;2.95;;;-1.20;1.00;;;;;;5050043;28;20401;-66
2023/12/03 04:12:48;;;;;;;9.60;3.08;;;-1.20;1.00;;;;;;5050329;28;20851;-66
2023/12/03 04:15:14;;;;;;;10.40;3.50;;;-1.30;1.00;;;;;;5050849;28;20885;-66
2023/12/03 04:17:39;;;;;;;10.50;3.83;;;-1.30;1.00;;;;;;5050513;28;20414;-66
2023/12/03 04:20:06;;;;;;;8.00;3.03;;;-1.30;1.00;;;;;;5050027;28;20389;-66
2023/12/03 04:22:32;;;;;;;5.70;2.22;;;-1.30;1.00;;;;;;5050190;28;20389;-66
2023/12/03 04:24:58;;;;;;;6.57;2.13;;;-1.40;1.00;;;;;;5049858;28;20451;-66
2023/12/03 04:27:23;;;;;;;9.93;2.97;;;-1.50;1.00;;;;;;5050316;28;20795;-66
2023/12/03 04:29:49;;;;;;;7.82;2.72;;;-1.40;1.00;;;;;;5048752;28;20799;-66
2023/12/03 04:32:15;;;;;;;7.63;3.50;;;-1.50;1.00;;;;;;5050620;28;20472;-65
2023/12/03 04:34:41;;;;;;;7.67;2.50;;;-1.60;1.00;;;;;;5049756;28;20416;-65
2023/12/03 04:37:06;;;;;;;8.20;3.20;;;-1.60;1.00;;;;;;5048099;28;20528;-66
2023/12/03 04:39:32;;;;;;;7.40;3.20;;;-1.70;1.00;;;;;;5050766;28;20413;-65
2023/12/03 04:41:57;;;;;;;7.03;2.90;;;-1.70;1.00;;;;;;5049872;28;20417;-66
2023/12/03 04:44:23;;;;;;;8.00;3.13;;;-1.60;1.00;;;;;;5049838;28;20390;-66
2023/12/03 04:46:48;;;;;;;8.63;3.17;;;-1.60;1.00;;;;;;5049668;28;20439;-66
2023/12/03 04:49:14;;;;;;;8.10;3.00;;;-1.60;1.00;;;;;;5049083;28;20393;-66
2023/12/03 04:51:39;;;;;;;7.30;2.77;;;-1.60;1.00;;;;;;5048561;28;20382;-66
2023/12/03 04:54:05;;;;;;;9.93;4.03;;;;;;;;;;5049055;28;20393;-65
2023/12/03 04:56:31;;;;;;;8.90;3.08;;;;;;;;;;5049329;28;20779;-65
2023/12/03 04:58:57;;;;;;;6.85;2.63;;;;;;;;;;5048835;28;20417;-66
2023/12/03 05:01:23;;;;;;;7.70;3.05;;;;;;;;;;5049255;28;20381;-66
2023/12/03 05:03:49;;;;;;;7.78;2.70;;;;;;;;;;5049330;28;20949;-66
2023/12/03 05:06:15;;;;;;;8.00;3.67;;;;;;;;;;5049241;28;20373;-66
2023/12/03 05:08:41;;;;;;;8.35;2.50;;;;;;;;;;5048907;28;20515;-66
2023/12/03 05:11:07;;;;;;;8.15;2.63;;;-2.10;1.00;;;;;;5049172;28;20830;-66
2023/12/03 05:13:33;;;;;;;9.55;2.80;;;-2.10;1.00;;;;;;5049347;28;20406;-65
2023/12/03 05:16:04;;;;;;;7.50;2.05;;;-2.10;1.00;;;;;;5049567;28;20443;-65
2023/12/03 05:18:30;;;;;;;8.60;3.73;;;-2.20;1.00;;;;;;5041231;28;20449;-64
2023/12/03 05:20:57;;;;;;;8.68;2.80;;;-2.20;1.00;;;;;;5028640;28;20387;-66
2023/12/03 05:23:23;;;;;;;12.68;3.28;;;-2.20;1.00;;;;;;5029007;28;20387;-65
2023/12/03 05:25:48;;;;;;;7.68;3.00;;;-2.10;1.00;;;;;;5029212;28;20418;-65
2023/12/03 05:28:14;;;;;;;9.20;3.53;;;-2.30;1.00;;;;;;5032840;28;20441;-65
2023/12/03 05:30:39;;;;;;;10.55;3.00;;;-2.30;1.00;;;;;;5048605;28;20892;-65
2023/12/03 05:33:05;;;;;;;10.87;2.73;;;-2.40;1.00;;;;;;5048889;28;20488;-65
2023/12/03 05:35:31;;;;;;;10.00;3.37;;;-2.60;1.00;;;;;;5048066;28;20389;-65
2023/12/03 05:37:56;;;;;;;6.40;2.57;;;-2.70;1.00;;;;;;5048109;28;20417;-65
2023/12/03 05:40:22;;;;;;;9.02;3.35;;;-2.60;1.00;;;;;;5048745;28;20459;-65
2023/12/03 05:42:47;;;;;;;10.83;3.40;;;-2.70;1.00;;;;;;5048557;28;20382;-65
2023/12/03 05:45:13;;;;;;;10.35;3.67;;;-2.70;1.00;;;;;;5051512;28;20848;-65
2023/12/03 05:47:40;;;;;;;10.32;3.75;;;-2.60;1.00;;;;;;5052093;28;20385;-65
2023/12/03 05:50:06;;;;;;;8.13;2.30;;;-2.70;1.00;;;;;;5048652;28;20413;-65
2023/12/03 05:52:32;;;;;;;11.85;4.00;;;-2.70;1.00;;;;;;5049075;28;20927;-65
2023/12/03 05:54:57;;;;;;;8.35;2.22;;;-2.70;1.00;;;;;;5048008;28;20523;-66
2023/12/03 05:57:23;;;;;;;8.10;3.22;;;-2.80;1.00;;;;;;5048468;28;20397;-66
2023/12/03 05:59:50;;;;;;;8.97;2.77;;;-2.80;1.00;;;;;;5049937;28;20396;-66
2023/12/03 06:02:16;;;;;;;8.60;2.67;;;-2.90;1.00;;;;;;5053176;28;20444;-65
2023/12/03 06:04:42;;;;;;;11.60;4.45;;;-3.00;1.00;;;;;;5050673;28;20748;-66
2023/12/03 06:07:08;;;;;;;7.30;3.08;;;-3.00;1.00;;;;;;5052437;28;20399;-66
2023/12/03 06:09:33;;;;;;;9.32;2.90;;;-3.10;1.00;;;;;;5052201;28;20713;-66
2023/12/03 06:11:59;;;;;;;6.40;2.47;;;-3.10;1.00;;;;;;5050531;28;20923;-65
2023/12/03 06:14:25;;;;;;;7.60;3.07;;;-3.10;1.00;;;;;;5052331;28;20400;-65
2023/12/03 06:16:51;;;;;;;11.20;2.50;;;-3.10;1.00;;;;;;5052291;28;20480;-66
2023/12/03 06:19:17;;;;;;;10.05;2.97;;;-3.10;1.00;;;;;;5052467;28;20551;-65
2023/12/03 06:21:42;;;;;;;7.80;1.83;;;-3.20;1.00;;;;;;5052457;28;20448;-66
2023/12/03 06:24:08;;;;;;;7.27;2.50;;;-3.30;1.00;;;;;;5051804;28;20393;-66
2023/12/03 06:26:33;;;;;;;12.43;3.40;;;-3.40;1.00;;;;;;5052250;28;20849;-65
2023/12/03 06:28:59;;;;;;;8.13;3.40;;;-3.40;1.00;;;;;;5052366;28;20393;-65
2023/12/03 06:31:24;;;;;;;9.13;2.43;;;-3.40;1.00;;;;;;5052173;28;20382;-66
2023/12/03 06:33:50;;;;;;;8.00;3.30;;;-3.50;1.00;;;;;;5051444;28;20467;-65
2023/12/03 06:36:15;;;;;;;8.55;2.95;;;-3.50;1.00;;;;;;5052534;28;20462;-65
2023/12/03 06:38:41;;;;;;;10.03;3.43;;;-3.60;1.00;;;;;;5049886;28;20874;-65
2023/12/03 06:41:06;;;;;;;8.70;2.30;;;-3.60;1.00;;;;;;5038592;28;20407;-65
2023/12/03 06:43:32;;;;;;;9.00;3.67;;;-3.70;1.00;;;;;;5032341;28;20395;-66
2023/12/03 06:46:01;;;;;;;8.50;2.93;;;-3.60;1.00;;;;;;5039225;28;20389;-65
2023/12/03 06:48:26;;;;;;;7.50;3.05;;;-3.50;1.00;;;;;;5051417;28;20393;-65
2023/12/03 06:50:52;;;;;;;8.90;3.13;;;-3.40;1.00;;;;;;5055348;28;20396;-66
2023/12/03 06:53:18;;;;;;;12.55;3.60;;;-3.40;1.00;;;;;;5053117;28;20443;-65
2023/12/03 06:55:43;;;;;;;7.40;2.60;;;-3.30;1.00;;;;;;5052103;28;20405;-65
2023/12/03 06:58:09;;;;;;;8.18;2.28;;;-3.30;1.00;;;;;;5051629;28;20547;-65
2023/12/03 07:00:34;;;;;;;13.10;3.10;;;-3.20;1.00;;;;;;5050330;28;20435;-66
2023/12/03 07:03:00;;;;;;;11.70;3.50;;;-3.20;1.00;;;;;;5050996;28;20560;-65
2023/12/03 07:05:26;;;;;;;9.07;3.30;;;-3.20;1.00;;;;;;5048803;28;20468;-65
2023/12/03 07:07:51;;;;;;;8.77;2.90;;;-3.20;1.00;;;;;;5042392;28;20401;-66
2023/12/03 07:10:18;;;;;;;9.50;3.70;;;-3.20;1.00;;;;;;5050729;28;20485;-65
2023/12/03 07:12:44;;;;;;;6.70;2.42;;;-3.10;1.00;;;;;;5050941;28;20382;-65
2023/12/03 07:15:09;;;;;;;14.63;2.80;;;-3.20;1.00;;;;;;5048073;28;20923;-65
2023/12/03 07:17:35;;;;;;;10.50;4.20;;;-3.20;1.00;;;;;;5038550;28;20397;-65
2023/12/03 07:20:01;;;;;;;11.55;4.32;;;-3.20;1.00;;;;;;5051284;28;20381;-66
2023/12/03 07:22:27;;;;;;;13.67;5.00;;;-3.10;1.00;;;;;;5050885;28;20756;-65
2023/12/03 07:24:53;;;;;;;10.53;4.47;;;-3.10;1.00;;;;;;5050410;28;20396;-65
2023/12/03 07:27:18;;;;;;;15.25;4.97;;;-3.20;1.00;;;;;;5050132;28;20816;-66
2023/12/03 07:29:45;;;;;;;12.60;4.70;;;-3.10;1.00;;;;;;5051249;28;20390;-66
2023/12/03 07:32:10;;;;;;;12.85;4.57;;;-3.10;1.00;;;;;;5049431;28;20455;-66
2023/12/03 07:34:36;;;;;;;15.07;5.35;;;-3.20;1.00;;;;;;5041159;28;20383;-66
2023/12/03 07:37:05;;;;;;;12.52;4.40;;;-3.20;1.00;;;;;;5050721;28;20780;-65
2023/12/03 07:39:30;;;;;;;9.77;4.30;;;-3.10;1.00;;;;;;5048645;28;20432;-65
2023/12/03 07:41:56;;;;;;;11.47;4.47;;;-2.90;1.00;;;;;;5050264;28;20402;-65
2023/12/03 07:44:22;;;;;;;12.82;5.45;;;-3.00;1.00;;;;;;5051592;28;20421;-64
2023/12/03 07:46:48;;;;;;;11.93;4.40;;;-3.00;1.00;;;;;;5054434;28;20614;-65
2023/12/03 07:49:14;;;;;;;15.00;4.30;;;-3.00;1.00;;;;;;5040785;28;20496;-65
2023/12/03 07:51:39;;;;;;;15.65;4.80;;;-3.10;1.00;;;;;;5041990;28;21208;-66
2023/12/03 07:54:05;;;;;;;16.60;4.72;;;-3.10;1.00;;;;;;5044212;28;20432;-65
2023/12/03 07:56:39;;;;;;;12.50;4.70;;;-3.20;1.00;;;;;;5047397;28;20415;-65
2023/12/03 07:59:04;;;;;;;13.90;4.20;;;-3.20;1.00;;;;;;5049456;28;20570;-66
2023/12/03 08:01:30;;;;;;;12.10;5.10;;;-3.10;1.00;;;;;;5045168;28;20838;-66
2023/12/03 08:03:55;;;;;;;11.00;4.50;;;-3.00;1.00;;;;;;5047657;28;20407;-66
2023/12/03 08:06:21;;;;;;;12.48;4.07;;;-2.90;1.00;;;;;;5044979;28;20409;-65
2023/12/03 08:08:47;;;;;;;12.20;4.55;;;-2.80;5.40;;;;;;5041245;28;20418;-65
2023/12/03 08:11:12;;;;;;;16.40;5.77;;;-2.80;45.20;;;;;;5036782;28;20419;-67
2023/12/03 08:13:38;;;;;;;10.80;4.60;;;-2.70;55.10;;;;;;5048002;28;20401;-65
2023/12/03 08:16:04;;;;;;;13.50;6.15;;;-2.60;57.90;;;;;;5035146;28;20410;-65
2023/12/03 08:18:30;;;;;;;14.35;5.40;;;-2.40;45.10;;;;;;5040146;28;20504;-65
2023/12/03 08:20:56;;;;;;;16.85;4.43;;;-2.30;52.70;;;;;;5030759;28;20417;-65
2023/12/03 08:23:22;;;;;;;14.25;5.10;;;-2.30;55.60;;;;;;5039100;28;20459;-65
2023/12/03 08:25:47;;;;;;;14.83;5.23;;;-2.20;50.50;;;;;;5046175;28;20397;-65
2023/12/03 08:28:13;;;;;;;13.07;4.93;;;-2.10;1.00;;;;;;5048467;28;20800;-66
2023/12/03 08:30:39;;;;;;;13.60;5.32;;;-1.90;1.00;;;;;;5044724;28;20429;-66
2023/12/03 08:33:04;;;;;;;16.52;5.70;;;-1.80;8.50;;;;;;5038222;28;20394;-66
2023/12/03 08:35:31;;;;;;;14.87;5.87;;;-1.60;10.30;;;;;;5044363;28;20875;-66
2023/12/03 08:37:57;;;;;;;14.32;5.80;;;-1.40;1.00;;;;;;5038457;28;20456;-66
2023/12/03 08:40:23;;;;;;;14.25;5.28;;;-0.80;1.00;;;;;;5046781;28;20467;-66
2023/12/03 08:42:49;;;;;;;13.82;5.75;;;;;;;;;;5045780;28;20413;-66
2023/12/03 08:45:25;;;;;;;14.83;5.50;;;;;;;;;;5108478;27;20376;-67
2023/12/03 08:47:51;;;;;;;12.63;5.37;;;;;;;;;;5077382;28;20402;-66
2023/12/03 08:50:17;;;;;;;12.47;5.40;;;;;;;;;;5078810;28;20392;-65
2023/12/03 08:52:42;;;;;;;12.32;5.45;;;;;;;;;;5095353;28;20453;-65
2023/12/03 08:55:09;;;;;;;13.40;5.32;;;;;;;;;;5087931;28;20426;-68
2023/12/03 08:57:35;;;;;;;11.90;5.30;;;;;;;;;;5075464;28;20440;-67
2023/12/03 09:00:01;;;;;;;13.60;5.83;;;7.00;99.90;;;;;;5079247;28;20451;-67
2023/12/03 09:02:26;;;;;;;13.13;5.72;;;7.30;99.90;;;;;;5066204;28;20409;-67
2023/12/03 09:04:52;;;;;;;14.33;6.17;;;7.50;99.90;;;;;;5077758;28;20457;-67
2023/12/03 09:07:18;;;;;;;13.50;5.60;;;7.60;99.90;;;;;;5072790;28;20393;-67
2023/12/03 09:09:43;;;;;;;13.43;5.72;;;7.70;99.90;;;;;;5068405;28;20399;-67
2023/12/03 09:12:09;;;;;;;16.73;6.50;;;7.70;99.90;;;;;;5068920;28;20408;-67
2023/12/03 09:14:35;;;;;;;16.30;6.70;;;8.10;99.90;;;;;;5074673;28;20806;-67
2023/12/03 09:17:01;;;;;;;15.60;6.80;;;8.50;99.90;;;;;;5094568;28;20403;-67
2023/12/03 09:19:26;;;;;;;15.03;6.20;;;8.50;99.90;;;;;;5079518;28;20962;-68
2023/12/03 09:21:52;;;;;;;14.13;6.35;;;9.20;99.90;;;;;;5094823;28;20397;-67
2023/12/03 09:24:17;;;;;;;14.27;6.30;;;8.80;99.90;;;;;;5078560;28;20474;-67
2023/12/03 09:26:45;;;;;;;14.20;6.10;;;9.20;99.90;;;;;;5087325;28;20421;-69
2023/12/03 09:29:11;;;;;;;14.00;6.47;;;9.50;99.90;;;;;;5081867;28;20415;-67
2023/12/03 09:31:39;;;;;;;12.93;5.97;;;9.30;99.90;;;;;;5090663;28;20403;-67
2023/12/03 09:34:05;;;;;;;14.25;5.85;;;9.40;99.90;;;;;;5083770;28;20512;-67
2023/12/03 09:36:31;;;;;;;12.38;5.63;;;9.30;99.90;;;;;;5086577;28;20478;-67
2023/12/03 09:38:57;;;;;;;14.20;5.43;;;9.20;99.90;;;;;;5073750;28;20442;-67
2023/12/03 09:41:24;;;;;;;13.00;6.23;;;9.20;99.90;;;;;;5079914;28;20410;-66
2023/12/03 09:43:54;;;;;;;15.95;6.22;;;9.90;99.90;;;;;;5076965;28;20442;-67
2023/12/03 09:46:22;;;;;;;14.23;6.40;;;10.70;99.90;;;;;;5071732;28;20396;-68
2023/12/03 09:48:50;;;;;;;83.50;9.05;;;9.80;99.90;;;;;;5082774;28;20980;-67
2023/12/03 09:51:18;;;;;;;14.75;6.15;;;9.00;99.90;;;;;;5070537;28;20409;-65
2023/12/03 09:53:44;;;;;;;15.93;6.65;;;9.20;99.90;;;;;;5066077;28;20475;-66
2023/12/03 09:56:13;;;;;;;17.25;7.07;;;10.00;99.90;;;;;;5055628;28;20417;-67
2023/12/03 09:58:39;;;;;;;13.07;6.15;;;10.10;99.90;;;;;;5052471;28;20436;-67
2023/12/03 10:01:06;;;;;;;15.20;6.75;;;10.10;99.90;;;;;;5062619;28;20412;-69
2023/12/03 10:03:32;;;;;;;17.15;7.28;;;10.60;99.90;;;;;;5059051;28;20909;-66
2023/12/03 10:05:57;;;;;;;17.00;6.88;;;10.60;99.90;;;;;;5051882;28;20412;-67
2023/12/03 10:08:23;;;;;;;13.83;6.27;;;9.90;99.90;;;;;;5079558;28;20413;-67
2023/12/03 10:10:59;;;;;;;12.45;5.60;;;9.70;99.90;;;;;;5057358;28;20415;-66
2023/12/03 10:13:27;;;;;;;15.00;6.00;;;9.70;99.90;;;;;;5062689;28;20427;-65
2023/12/03 10:15:52;;;;;;;15.05;7.00;;;9.10;99.90;;;;;;5067393;28;20407;-66
2023/12/03 10:18:19;;;;;;;16.57;7.17;;;9.80;99.90;;;;;;5057764;28;20417;-66
2023/12/03 10:20:44;;;;;;;16.70;7.22;;;9.70;99.90;;;;;;5063786;28;20407;-66
2023/12/03 10:23:16;;;;;;;16.33;7.13;;;9.80;99.90;;;;;;5071129;28;20745;-65
2023/12/03 10:25:41;;;;;;;15.13;6.18;;;9.40;99.90;;;;;;5084910;28;20390;-65
2023/12/03 10:28:08;;;;;;;15.60;6.53;;;9.50;99.90;;;;;;5091639;28;20744;-65
2023/12/03 10:30:38;;;;;;;16.48;6.50;;;9.20;99.90;;;;;;5076564;28;20414;-65
2023/12/03 10:33:04;;;;;;;14.87;6.87;;;9.10;99.90;;;;;;5072602;28;20372;-65
2023/12/03 10:35:34;;;;;;;14.45;5.75;;;8.40;99.90;;;;;;5066835;28;20487;-66
2023/12/03 10:38:00;;;;;;;13.70;6.03;;;7.60;99.90;;;;;;5080290;28;20382;-65
2023/12/03 10:40:26;;;;;;;14.90;6.60;;;7.60;99.90;;;;;;5079447;28;20391;-65
2023/12/03 10:42:52;;;;;;;13.82;5.63;;;6.90;99.90;;;;;;5078004;28;20430;-66
2023/12/03 10:45:17;;;;;;;16.57;7.50;;;6.70;99.90;;;;;;5076449;28;20416;-66
2023/12/03 10:47:44;;;;;;;15.10;6.80;;;6.60;99.90;;;;;;5067477;28;20968;-67
2023/12/03 10:50:11;;;;;;;14.10;6.40;;;6.40;99.90;;;;;;5060422;28;20385;-67
2023/12/03 10:52:38;;;;;;;14.82;6.28;;;7.00;99.90;;;;;;5061372;28;21064;-67
2023/12/03 10:55:05;;;;;;;18.75;8.88;;;7.00;99.90;;;;;;5059218;28;20798;-67
2023/12/03 10:57:34;;;;;;;12.35;5.85;;;6.80;99.90;;;;;;5079779;28;20429;-67
2023/12/03 11:00:10;;;;;;;14.88;6.20;;;7.10;99.90;;;;;;5079794;28;20865;-67
2023/12/03 11:02:45;;;;;;;14.90;6.60;;;7.90;99.90;;;;;;5076537;28;20380;-67
2023/12/03 11:05:26;;;;;;;16.40;6.80;;;8.70;99.90;;;;;;5072680;28;20804;-67
2023/12/03 11:07:52;;;;;;;15.40;7.25;;;9.20;99.90;;;;;;5072510;28;20402;-67
2023/12/03 11:10:18;;;;;;;17.13;7.43;;;9.60;99.90;;;;;;5077923;28;20406;-67
2023/12/03 11:12:46;;;;;;;17.90;8.40;;;8.80;99.90;;;;;;5070093;28;20485;-67
2023/12/03 11:15:11;;;;;;;17.13;8.20;;;7.90;99.90;;;;;;5070917;28;20429;-68
2023/12/03 11:17:44;;;;;;;16.03;6.47;;;6.90;99.90;;;;;;5069652;28;20399;-67
2023/12/03 11:20:17;;;;;;;19.05;7.45;;;6.10;99.90;;;;;;5068308;28;20482;-67
2023/12/03 11:23:16;;;;;;;17.55;7.43;;;5.30;99.90;;;;;;5070558;28;20403;-67
2023/12/03 11:25:59;;;;;;;15.55;5.95;;;4.70;99.90;;;;;;5070126;28;20457;-66
2023/12/03 11:28:26;;;;;;;16.83;7.07;;;4.50;99.90;;;;;;5072339;28;20384;-67
2023/12/03 11:30:51;;;;;;;15.85;5.93;;;4.60;99.90;;;;;;5069259;28;20395;-67
2023/12/03 11:33:22;;;;;;;13.30;5.93;;;4.40;99.90;;;;;;5075479;28;20864;-67
2023/12/03 11:35:50;;;;;;;25.27;11.95;;;4.20;99.90;;;;;;5090403;28;20394;-66
2023/12/03 11:38:22;;;;;;;19.50;8.48;;;4.00;99.90;;;;;;5089004;28;20443;-67
2023/12/03 11:40:48;;;;;;;27.17;9.70;;;3.70;99.90;;;;;;5090323;28;20389;-67
2023/12/03 11:43:24;;;;;;;44.70;16.17;;;3.60;99.90;;;;;;5090585;28;20424;-67
2023/12/03 11:45:51;;;;;;;15.70;7.20;;;3.40;99.90;;;;;;5091287;28;20401;-67
2023/12/03 11:48:17;;;;;;;15.73;7.70;;;3.50;99.90;;;;;;5090605;28;20399;-67
2023/12/03 11:50:44;;;;;;;16.95;6.75;;;3.60;99.90;;;;;;5075443;28;20391;-67
2023/12/03 11:53:13;;;;;;;17.67;7.30;;;3.60;99.90;;;;;;5068289;28;20392;-67
2023/12/03 11:55:42;;;;;;;17.77;7.53;;;3.80;99.90;;;;;;5069181;28;20439;-67
2023/12/03 11:58:08;;;;;;;19.00;7.30;;;3.80;99.90;;;;;;5068939;28;20857;-68
2023/12/03 12:00:35;;;;;;;15.02;6.75;;;3.80;99.90;;;;;;5069334;28;20386;-67
2023/12/03 12:03:03;;;;;;;14.77;6.25;;;3.90;99.90;;;;;;5068788;28;20415;-67
2023/12/03 12:05:29;;;;;;;14.52;6.82;;;3.80;99.90;;;;;;5086573;28;20808;-68
2023/12/03 12:08:00;;;;;;;21.10;8.15;;;3.70;99.90;;;;;;5071324;28;20909;-67
2023/12/03 12:10:27;;;;;;;17.67;7.00;;;3.70;99.90;;;;;;5069049;28;20814;-67
2023/12/03 12:12:53;;;;;;;18.40;7.28;;;3.80;99.90;;;;;;5069277;28;20526;-67
2023/12/03 12:15:19;;;;;;;16.92;7.50;;;3.90;99.90;;;;;;5069604;28;20417;-67
2023/12/03 12:17:44;;;;;;;17.35;7.47;;;3.80;99.90;;;;;;5071209;28;20893;-67
2023/12/03 12:20:10;;;;;;;20.17;10.13;;;3.70;99.90;;;;;;5069422;28;20399;-66
2023/12/03 12:22:37;;;;;;;15.50;7.15;;;3.70;99.90;;;;;;5069739;28;20387;-67
2023/12/03 12:25:04;;;;;;;16.48;7.07;;;3.60;99.90;;;;;;5069161;28;20416;-67
2023/12/03 12:27:30;;;;;;;16.98;7.57;;;3.60;99.90;;;;;;5064184;28;20414;-67
2023/12/03 12:29:56;;;;;;;19.75;7.25;;;3.60;99.90;;;;;;5070780;28;20406;-66
2023/12/03 12:32:21;;;;;;;16.23;7.55;;;3.40;99.90;;;;;;5077759;28;20406;-66
2023/12/03 12:34:47;;;;;;;19.57;8.33;;;3.20;99.90;;;;;;5079212;28;20800;-67
2023/12/03 12:37:13;;;;;;;15.73;7.85;;;3.40;99.90;;;;;;5068711;28;20411;-66
2023/12/03 12:39:38;;;;;;;22.13;7.83;;;3.40;99.90;;;;;;5074661;28;20386;-66
2023/12/03 12:42:04;;;;;;;15.38;6.63;;;3.30;99.90;;;;;;5085886;28;20501;-66
2023/12/03 12:44:45;;;;;;;17.20;6.50;;;3.00;99.90;;;;;;5077939;28;20437;-67
2023/12/03 12:47:11;;;;;;;18.10;8.07;;;2.90;99.90;;;;;;5061708;28;20398;-67
2023/12/03 12:49:40;;;;;;;18.10;7.78;;;3.00;99.90;;;;;;5077635;28;20482;-66